createdAt,value
2018-05-06T00:02:09.928Z,12.89
2018-05-06T00:04:37.332Z,12.83
2018-05-06T00:07:04.748Z,12.80
2018-05-06T00:09:32.157Z,12.77
2018-05-06T00:11:59.565Z,12.75
2018-05-06T00:14:26.972Z,12.73
2018-05-06T00:16:54.405Z,12.71
2018-05-06T00:19:21.804Z,12.66
2018-05-06T00:21:49.224Z,12.63
2018-05-06T00:24:16.635Z,12.57
2018-05-06T00:26:44.045Z,12.52
2018-05-06T00:29:11.468Z,12.48
2018-05-06T00:31:38.884Z,12.43
2018-05-06T00:34:06.300Z,12.40
2018-05-06T00:36:33.728Z,12.37
2018-05-06T00:39:01.141Z,12.36
2018-05-06T00:41:28.556Z,12.33
2018-05-06T00:43:56.013Z,12.29
2018-05-06T00:46:23.495Z,12.24
2018-05-06T00:48:50.828Z,12.22
2018-05-06T00:51:18.246Z,12.24
2018-05-06T00:53:45.651Z,12.21
2018-05-06T00:56:13.057Z,12.19
2018-05-06T00:58:40.469Z,12.16
2018-05-06T01:01:07.882Z,12.11
2018-05-06T01:03:35.296Z,12.06
2018-05-06T01:06:02.704Z,12.01
2018-05-06T01:08:30.127Z,11.96
2018-05-06T01:10:57.536Z,11.91
2018-05-06T01:13:24.956Z,11.87
2018-05-06T01:15:52.385Z,11.86
2018-05-06T01:18:19.809Z,11.85
2018-05-06T01:20:47.208Z,11.83
2018-05-06T01:23:14.632Z,11.82
2018-05-06T01:25:42.043Z,11.80
2018-05-06T01:28:09.457Z,11.77
2018-05-06T01:30:36.863Z,11.76
2018-05-06T01:33:04.280Z,11.75
2018-05-06T01:35:31.684Z,11.73
2018-05-06T01:37:59.132Z,11.70
2018-05-06T01:40:26.533Z,11.67
2018-05-06T01:42:53.945Z,11.63
2018-05-06T01:45:21.357Z,11.60
2018-05-06T01:47:48.769Z,11.55
2018-05-06T01:50:16.176Z,11.52
2018-05-06T01:52:43.596Z,11.48
2018-05-06T01:55:11.012Z,11.45
2018-05-06T01:57:38.429Z,11.45
2018-05-06T02:00:05.837Z,11.42
2018-05-06T02:02:33.253Z,11.42
2018-05-06T02:05:00.664Z,11.38
2018-05-06T02:07:28.069Z,11.33
2018-05-06T02:09:55.477Z,11.27
2018-05-06T02:12:22.922Z,11.22
2018-05-06T02:14:50.323Z,11.18
2018-05-06T02:17:17.724Z,11.13
2018-05-06T02:19:45.144Z,11.08
2018-05-06T02:22:12.547Z,11.05
2018-05-06T02:24:39.960Z,11.05
2018-05-06T02:27:07.368Z,11.04
2018-05-06T02:29:34.792Z,11.01
2018-05-06T02:32:02.205Z,10.97
2018-05-06T02:34:29.617Z,10.92
2018-05-06T02:36:57.025Z,10.84
2018-05-06T02:39:24.439Z,10.78
2018-05-06T02:41:51.848Z,10.73
2018-05-06T02:44:19.271Z,10.69
2018-05-06T02:46:46.667Z,10.67
2018-05-06T02:49:14.076Z,10.67
2018-05-06T02:51:41.484Z,10.67
2018-05-06T02:54:08.908Z,10.66
2018-05-06T02:56:36.312Z,10.65
2018-05-06T02:59:03.724Z,10.64
2018-05-06T03:01:31.133Z,10.61
2018-05-06T03:03:58.546Z,10.57
2018-05-06T03:06:25.952Z,10.56
2018-05-06T03:08:53.370Z,10.57
2018-05-06T03:11:20.775Z,10.55
2018-05-06T03:13:48.188Z,10.52
2018-05-06T03:16:15.691Z,10.48
2018-05-06T03:18:43.175Z,10.44
2018-05-06T03:21:10.507Z,10.42
2018-05-06T03:23:37.924Z,10.43
2018-05-06T03:26:05.328Z,10.42
2018-05-06T03:28:32.748Z,10.40
2018-05-06T03:31:00.147Z,10.36
2018-05-06T03:33:27.567Z,10.33
2018-05-06T03:35:54.977Z,10.31
2018-05-06T03:38:22.388Z,10.30
2018-05-06T03:40:49.799Z,10.30
2018-05-06T03:43:17.208Z,10.28
2018-05-06T03:45:44.649Z,10.26
2018-05-06T03:48:12.088Z,10.25
2018-05-06T03:50:39.489Z,10.26
2018-05-06T03:53:06.893Z,10.25
2018-05-06T03:55:34.336Z,10.25
2018-05-06T03:58:13.656Z,10.22
2018-05-06T04:00:42.656Z,10.18
2018-05-06T04:03:10.065Z,10.15
2018-05-06T04:05:37.484Z,10.14
2018-05-06T04:08:04.886Z,10.15
2018-05-06T04:10:33.125Z,10.17
2018-05-06T04:13:00.522Z,10.21
2018-05-06T04:15:27.945Z,10.22
2018-05-06T04:17:55.348Z,10.22
2018-05-06T04:20:22.764Z,10.23
2018-05-06T04:22:50.209Z,10.25
2018-05-06T04:25:17.616Z,10.27
2018-05-06T04:27:45.021Z,10.31
2018-05-06T04:30:12.437Z,10.35
2018-05-06T04:32:39.848Z,10.40
2018-05-06T04:35:07.272Z,10.46
2018-05-06T04:37:34.674Z,10.53
2018-05-06T04:40:02.088Z,10.56
2018-05-06T04:42:29.515Z,10.60
2018-05-06T04:44:56.924Z,10.67
2018-05-06T04:47:24.332Z,10.73
2018-05-06T04:49:51.740Z,10.81
2018-05-06T04:52:19.148Z,10.92
2018-05-06T04:54:46.582Z,11.04
2018-05-06T04:57:13.979Z,11.16
2018-05-06T04:59:41.391Z,11.26
2018-05-06T05:02:08.796Z,11.38
2018-05-06T05:04:36.208Z,11.50
2018-05-06T05:07:03.616Z,11.63
2018-05-06T05:09:31.063Z,11.76
2018-05-06T05:11:58.443Z,11.91
2018-05-06T05:14:25.859Z,12.05
2018-05-06T05:16:53.264Z,12.19
2018-05-06T05:19:20.691Z,12.34
2018-05-06T05:21:48.095Z,12.50
2018-05-06T05:24:15.521Z,12.61
2018-05-06T05:26:42.927Z,12.73
2018-05-06T05:29:10.324Z,12.86
2018-05-06T05:31:37.735Z,12.97
2018-05-06T05:34:05.142Z,13.09
2018-05-06T05:36:32.557Z,13.19
2018-05-06T05:38:59.962Z,13.30
2018-05-06T05:41:27.377Z,13.38
2018-05-06T05:43:54.785Z,13.51
2018-05-06T05:46:22.192Z,13.61
2018-05-06T05:48:49.595Z,13.74
2018-05-06T05:51:17.012Z,13.85
2018-05-06T05:53:44.417Z,13.94
2018-05-06T05:56:11.832Z,14.04
2018-05-06T05:58:39.236Z,14.14
2018-05-06T06:01:06.654Z,14.24
2018-05-06T06:03:34.063Z,14.36
2018-05-06T06:06:01.471Z,14.49
2018-05-06T06:08:28.880Z,14.60
2018-05-06T06:10:56.292Z,14.71
2018-05-06T06:13:23.688Z,14.83
2018-05-06T06:15:51.101Z,14.94
2018-05-06T06:18:18.511Z,15.09
2018-05-06T06:20:45.923Z,15.24
2018-05-06T06:23:13.320Z,15.36
2018-05-06T06:25:40.768Z,15.46
2018-05-06T06:28:08.201Z,15.61
2018-05-06T06:30:35.613Z,15.79
2018-05-06T06:33:03.086Z,15.97
2018-05-06T06:35:30.438Z,16.14
2018-05-06T06:37:57.848Z,16.26
2018-05-06T06:40:25.255Z,16.37
2018-05-06T06:42:52.668Z,16.51
2018-05-06T06:45:20.075Z,16.68
2018-05-06T06:47:47.484Z,16.77
2018-05-06T06:50:14.900Z,16.88
2018-05-06T06:52:42.308Z,17.03
2018-05-06T06:55:09.721Z,17.18
2018-05-06T06:57:37.199Z,17.37
2018-05-06T07:00:04.560Z,17.52
2018-05-06T07:02:31.966Z,17.65
2018-05-06T07:04:59.367Z,17.81
2018-05-06T07:07:26.785Z,17.97
2018-05-06T07:09:54.189Z,18.12
2018-05-06T07:12:21.601Z,18.29
2018-05-06T07:14:49.020Z,18.54
2018-05-06T07:17:16.441Z,18.85
2018-05-06T07:19:43.844Z,19.03
2018-05-06T07:22:11.273Z,19.16
2018-05-06T07:24:38.669Z,19.28
2018-05-06T07:27:06.101Z,19.38
2018-05-06T07:29:33.512Z,19.61
2018-05-06T07:32:00.920Z,19.78
2018-05-06T07:34:28.323Z,19.98
2018-05-06T07:36:55.745Z,20.22
2018-05-06T07:39:23.149Z,20.44
2018-05-06T07:41:50.555Z,20.68
2018-05-06T07:44:17.976Z,20.84
2018-05-06T07:46:45.375Z,20.97
2018-05-06T07:49:12.784Z,21.20
2018-05-06T07:51:40.200Z,21.46
2018-05-06T07:54:07.606Z,21.69
2018-05-06T07:56:35.024Z,21.93
2018-05-06T07:59:02.435Z,22.20
2018-05-06T08:01:29.861Z,22.51
2018-05-06T08:03:57.278Z,22.85
2018-05-06T08:06:24.692Z,23.11
2018-05-06T08:08:52.115Z,23.27
2018-05-06T08:11:19.540Z,23.22
2018-05-06T08:13:46.951Z,23.21
2018-05-06T08:16:14.406Z,23.32
2018-05-06T08:18:41.787Z,23.32
2018-05-06T08:21:09.208Z,23.36
2018-05-06T08:23:36.615Z,23.37
2018-05-06T08:26:04.051Z,23.37
2018-05-06T08:28:31.462Z,23.68
2018-05-06T08:30:58.884Z,23.87
2018-05-06T08:33:26.300Z,24.00
2018-05-06T08:35:53.725Z,24.12
2018-05-06T08:38:21.172Z,24.30
2018-05-06T08:40:48.584Z,24.32
2018-05-06T08:43:16.001Z,24.42
2018-05-06T08:45:43.494Z,24.52
2018-05-06T08:48:10.841Z,24.66
2018-05-06T08:50:38.256Z,25.03
2018-05-06T08:53:05.680Z,25.21
2018-05-06T08:55:33.096Z,25.46
2018-05-06T08:58:00.508Z,25.79
2018-05-06T09:00:27.928Z,26.05
2018-05-06T09:02:55.349Z,26.03
2018-05-06T09:05:22.769Z,26.23
2018-05-06T09:07:50.181Z,26.40
2018-05-06T09:10:17.596Z,26.38
2018-05-06T09:12:45.021Z,26.36
2018-05-06T09:15:12.433Z,26.50
2018-05-06T09:17:39.860Z,26.65
2018-05-06T09:20:07.277Z,26.89
2018-05-06T09:22:34.701Z,27.11
2018-05-06T09:25:02.120Z,27.07
2018-05-06T09:27:29.536Z,27.15
2018-05-06T09:29:56.952Z,27.42
2018-05-06T09:32:24.459Z,27.44
2018-05-06T09:34:51.792Z,27.35
2018-05-06T09:37:19.240Z,27.42
2018-05-06T09:39:46.655Z,27.70
2018-05-06T09:42:14.067Z,27.94
2018-05-06T09:44:41.484Z,27.94
2018-05-06T09:47:08.906Z,27.85
2018-05-06T09:49:36.317Z,28.00
2018-05-06T09:52:03.744Z,28.20
2018-05-06T09:54:31.156Z,28.40
2018-05-06T09:56:58.584Z,28.44
2018-05-06T09:59:26.133Z,28.35
2018-05-06T10:01:53.551Z,28.63
2018-05-06T10:04:20.968Z,28.95
2018-05-06T10:06:48.417Z,29.14
2018-05-06T10:09:15.832Z,29.30
2018-05-06T10:11:43.256Z,29.48
2018-05-06T10:14:10.706Z,29.53
2018-05-06T10:16:38.124Z,29.50
2018-05-06T10:19:05.545Z,29.62
2018-05-06T10:21:32.956Z,29.68
2018-05-06T10:24:00.380Z,29.78
2018-05-06T10:26:27.811Z,29.64
2018-05-06T10:28:55.307Z,29.47
2018-05-06T10:31:22.737Z,29.54
2018-05-06T10:33:50.173Z,29.59
2018-05-06T10:36:17.605Z,29.72
2018-05-06T10:38:45.025Z,29.77
2018-05-06T10:41:12.480Z,29.87
2018-05-06T10:43:39.903Z,29.98
2018-05-06T10:46:07.317Z,29.94
2018-05-06T10:48:34.773Z,29.97
2018-05-06T10:51:02.188Z,30.00
2018-05-06T10:53:29.619Z,29.98
2018-05-06T10:55:57.042Z,30.19
2018-05-06T10:58:24.464Z,30.19
2018-05-06T11:00:51.890Z,30.23
2018-05-06T11:03:19.327Z,30.31
2018-05-06T11:05:46.765Z,30.50
2018-05-06T11:08:14.240Z,30.52
2018-05-06T11:10:41.656Z,30.46
2018-05-06T11:13:09.149Z,30.44
2018-05-06T11:15:36.589Z,30.45
2018-05-06T11:18:04.018Z,30.68
2018-05-06T11:20:32.630Z,30.80
2018-05-06T11:23:00.064Z,30.74
2018-05-06T11:25:27.472Z,30.62
2018-05-06T11:27:54.901Z,30.66
2018-05-06T11:30:22.312Z,30.59
2018-05-06T11:32:49.736Z,30.86
2018-05-06T11:35:17.188Z,30.91
2018-05-06T11:37:44.620Z,31.08
2018-05-06T11:40:12.045Z,31.20
2018-05-06T11:42:39.480Z,31.34
2018-05-06T11:45:06.896Z,31.24
2018-05-06T11:47:34.317Z,31.28
2018-05-06T11:50:01.737Z,31.42
2018-05-06T11:52:29.144Z,31.42
2018-05-06T11:54:56.569Z,31.31
2018-05-06T11:57:23.988Z,31.45
2018-05-06T11:59:51.420Z,31.54
2018-05-06T12:02:18.870Z,31.53
2018-05-06T12:04:46.260Z,31.50
2018-05-06T12:07:13.667Z,31.48
2018-05-06T12:09:41.087Z,31.52
2018-05-06T12:12:08.504Z,31.40
2018-05-06T12:14:35.931Z,31.36
2018-05-06T12:17:03.359Z,31.49
2018-05-06T12:19:30.792Z,31.76
2018-05-06T12:21:58.273Z,31.90
2018-05-06T12:24:25.632Z,32.01
2018-05-06T12:26:53.043Z,31.94
2018-05-06T12:29:20.510Z,31.79
2018-05-06T12:31:47.924Z,31.79
2018-05-06T12:34:15.349Z,31.95
2018-05-06T12:36:42.760Z,32.16
2018-05-06T12:39:10.189Z,32.17
2018-05-06T12:41:37.603Z,32.10
2018-05-06T12:44:05.035Z,32.11
2018-05-06T12:46:32.453Z,32.23
2018-05-06T12:48:59.880Z,32.17
2018-05-06T12:51:27.296Z,32.05
2018-05-06T12:53:54.720Z,31.94
2018-05-06T12:56:22.159Z,32.07
2018-05-06T12:58:49.584Z,32.31
2018-05-06T13:01:17.004Z,32.36
2018-05-06T13:03:44.441Z,32.52
2018-05-06T13:06:11.848Z,32.63
2018-05-06T13:08:39.267Z,32.55
2018-05-06T13:11:06.700Z,32.48
2018-05-06T13:13:34.127Z,32.47
2018-05-06T13:16:01.540Z,32.38
2018-05-06T13:18:28.960Z,32.24
2018-05-06T13:20:56.381Z,32.32
2018-05-06T13:23:23.804Z,32.24
2018-05-06T13:25:51.221Z,32.24
2018-05-06T13:28:18.656Z,32.33
2018-05-06T13:30:46.076Z,32.38
2018-05-06T13:33:13.488Z,32.34
2018-05-06T13:35:40.931Z,32.46
2018-05-06T13:38:08.344Z,32.53
2018-05-06T13:40:35.765Z,32.51
2018-05-06T13:43:03.184Z,32.56
2018-05-06T13:45:30.607Z,32.33
2018-05-06T13:47:58.016Z,32.24
2018-05-06T13:50:25.440Z,32.15
2018-05-06T13:52:52.849Z,32.28
2018-05-06T13:55:20.273Z,32.40
2018-05-06T13:57:47.682Z,32.53
2018-05-06T14:00:15.108Z,32.51
2018-05-06T14:02:42.612Z,32.44
2018-05-06T14:05:09.956Z,32.55
2018-05-06T14:07:37.378Z,32.62
2018-05-06T14:10:04.804Z,32.58
2018-05-06T14:12:32.257Z,32.44
2018-05-06T14:14:59.676Z,32.10
2018-05-06T14:17:27.092Z,31.85
2018-05-06T14:19:54.518Z,32.02
2018-05-06T14:22:21.932Z,32.23
2018-05-06T14:24:49.360Z,32.14
2018-05-06T14:27:16.776Z,32.04
2018-05-06T14:29:44.200Z,32.16
2018-05-06T14:32:11.604Z,32.17
2018-05-06T14:34:39.033Z,32.12
2018-05-06T14:37:06.445Z,32.05
2018-05-06T14:39:33.892Z,32.25
2018-05-06T14:42:01.288Z,32.25
2018-05-06T14:44:28.708Z,32.29
2018-05-06T14:47:07.904Z,32.20
2018-05-06T14:49:35.338Z,31.99
2018-05-06T14:52:02.764Z,31.77
2018-05-06T14:54:30.200Z,31.61
2018-05-06T14:56:57.625Z,31.59
2018-05-06T14:59:25.036Z,31.60
2018-05-06T15:01:52.461Z,31.54
2018-05-06T15:04:19.872Z,31.29
2018-05-06T15:06:47.297Z,31.11
2018-05-06T15:09:14.713Z,30.93
2018-05-06T15:11:42.168Z,31.06
2018-05-06T15:14:09.575Z,31.07
2018-05-06T15:16:37.004Z,31.05
2018-05-06T15:19:04.417Z,30.84
2018-05-06T15:21:31.840Z,30.55
2018-05-06T15:23:59.252Z,30.36
2018-05-06T15:26:26.677Z,30.49
2018-05-06T15:28:54.097Z,30.46
2018-05-06T15:31:21.517Z,30.42
2018-05-06T15:33:48.924Z,30.48
2018-05-06T15:36:16.357Z,30.30
2018-05-06T15:38:43.765Z,30.22
2018-05-06T15:41:11.284Z,30.26
2018-05-06T15:43:38.608Z,30.18
2018-05-06T15:46:06.027Z,29.94
2018-05-06T15:48:33.440Z,29.69
2018-05-06T15:51:00.881Z,29.44
2018-05-06T15:53:28.296Z,29.29
2018-05-06T15:55:55.719Z,29.21
2018-05-06T15:58:23.132Z,29.07
2018-05-06T16:00:50.544Z,28.96
2018-05-06T16:03:29.765Z,28.82
2018-05-06T16:05:57.233Z,28.71
2018-05-06T16:08:24.643Z,28.64
2018-05-06T16:10:52.056Z,28.49
2018-05-06T16:13:19.500Z,28.37
2018-05-06T16:15:46.922Z,28.32
2018-05-06T16:18:14.335Z,28.29
2018-05-06T16:20:41.781Z,28.18
2018-05-06T16:23:09.218Z,28.04
2018-05-06T16:25:36.626Z,28.02
2018-05-06T16:28:04.044Z,28.06
2018-05-06T16:30:31.470Z,27.98
2018-05-06T16:32:58.887Z,27.93
2018-05-06T16:35:26.312Z,27.84
2018-05-06T16:37:53.752Z,27.87
2018-05-06T16:40:21.163Z,27.80
2018-05-06T16:42:48.610Z,27.79
2018-05-06T16:45:16.023Z,27.80
2018-05-06T16:47:43.435Z,27.71
2018-05-06T16:50:10.860Z,27.53
2018-05-06T16:52:38.290Z,27.41
2018-05-06T16:55:05.700Z,27.40
2018-05-06T16:57:33.118Z,27.42
2018-05-06T17:00:00.536Z,27.46
2018-05-06T17:02:27.994Z,27.41
2018-05-06T17:04:55.412Z,27.36
2018-05-06T17:07:22.834Z,27.30
2018-05-06T17:09:50.300Z,27.19
2018-05-06T17:12:17.730Z,27.14
2018-05-06T17:14:45.141Z,27.07
2018-05-06T17:17:12.557Z,26.98
2018-05-06T17:19:39.984Z,26.96
2018-05-06T17:22:07.424Z,26.94
2018-05-06T17:24:34.833Z,26.83
2018-05-06T17:27:02.256Z,26.74
2018-05-06T17:29:29.697Z,26.75
2018-05-06T17:31:57.158Z,26.70
2018-05-06T17:34:24.606Z,26.69
2018-05-06T17:36:52.011Z,26.66
2018-05-06T17:39:19.443Z,26.59
2018-05-06T17:41:46.865Z,26.40
2018-05-06T17:44:14.272Z,26.38
2018-05-06T17:46:41.688Z,26.27
2018-05-06T17:49:09.104Z,26.23
2018-05-06T17:51:36.528Z,26.20
2018-05-06T17:54:03.942Z,26.21
2018-05-06T17:56:31.381Z,26.20
2018-05-06T17:58:58.792Z,26.05
2018-05-06T18:01:26.217Z,26.01
2018-05-06T18:03:53.645Z,26.05
2018-05-06T18:06:21.061Z,26.01
2018-05-06T18:08:48.490Z,25.98
2018-05-06T18:11:15.911Z,25.99
2018-05-06T18:13:43.319Z,25.97
2018-05-06T18:16:10.773Z,25.90
2018-05-06T18:18:38.185Z,25.82
2018-05-06T18:21:05.608Z,25.69
2018-05-06T18:23:33.019Z,25.59
2018-05-06T18:26:00.441Z,25.43
2018-05-06T18:28:27.852Z,25.32
2018-05-06T18:30:55.279Z,25.25
2018-05-06T18:33:22.688Z,25.20
2018-05-06T18:35:50.116Z,25.19
2018-05-06T18:38:17.529Z,25.14
2018-05-06T18:40:44.940Z,25.13
2018-05-06T18:43:12.360Z,25.17
2018-05-06T18:45:39.781Z,25.16
2018-05-06T18:48:07.211Z,25.11
2018-05-06T18:50:34.631Z,24.99
2018-05-06T18:53:02.055Z,24.87
2018-05-06T18:55:29.465Z,24.83
2018-05-06T18:57:56.909Z,24.78
2018-05-06T19:00:24.325Z,24.74
2018-05-06T19:02:51.748Z,24.66
2018-05-06T19:05:19.162Z,24.60
2018-05-06T19:07:46.580Z,24.55
2018-05-06T19:10:13.997Z,24.45
2018-05-06T19:12:41.416Z,24.40
2018-05-06T19:15:08.828Z,24.29
2018-05-06T19:17:36.311Z,24.16
2018-05-06T19:20:03.680Z,24.09
2018-05-06T19:22:31.108Z,23.97
2018-05-06T19:24:58.524Z,23.92
2018-05-06T19:27:25.948Z,23.87
2018-05-06T19:29:53.380Z,23.82
2018-05-06T19:32:20.809Z,23.73
2018-05-06T19:34:48.229Z,23.70
2018-05-06T19:37:15.650Z,23.65
2018-05-06T19:39:43.141Z,23.59
2018-05-06T19:42:10.480Z,23.51
2018-05-06T19:44:37.901Z,23.42
2018-05-06T19:47:05.323Z,23.32
2018-05-06T19:49:32.740Z,23.22
2018-05-06T19:52:00.160Z,23.05
2018-05-06T19:54:27.596Z,22.91
2018-05-06T19:56:55.002Z,22.78
2018-05-06T19:59:22.424Z,22.69
2018-05-06T20:01:49.838Z,22.63
2018-05-06T20:04:17.252Z,22.56
2018-05-06T20:06:44.668Z,22.49
2018-05-06T20:09:12.105Z,22.40
2018-05-06T20:11:39.511Z,22.32
2018-05-06T20:14:06.932Z,22.23
2018-05-06T20:16:34.348Z,22.13
2018-05-06T20:19:01.770Z,22.02
2018-05-06T20:21:29.273Z,21.92
2018-05-06T20:23:56.602Z,21.81
2018-05-06T20:26:24.022Z,21.69
2018-05-06T20:28:51.432Z,21.58
2018-05-06T20:31:18.861Z,21.46
2018-05-06T20:33:46.269Z,21.36
2018-05-06T20:36:13.697Z,21.24
2018-05-06T20:38:41.123Z,21.14
2018-05-06T20:41:08.539Z,21.06
2018-05-06T20:43:35.957Z,20.98
2018-05-06T20:46:03.384Z,20.90
2018-05-06T20:48:30.802Z,20.76
2018-05-06T20:50:58.213Z,20.62
2018-05-06T20:53:25.623Z,20.49
2018-05-06T20:55:53.045Z,20.37
2018-05-06T20:58:20.508Z,20.24
2018-05-06T21:00:47.919Z,20.14
2018-05-06T21:03:15.332Z,20.04
2018-05-06T21:05:42.769Z,19.97
2018-05-06T21:08:10.176Z,19.88
2018-05-06T21:10:37.609Z,19.77
2018-05-06T21:13:05.029Z,19.67
2018-05-06T21:15:32.440Z,19.60
2018-05-06T21:17:59.859Z,19.52
2018-05-06T21:20:27.268Z,19.43
2018-05-06T21:22:54.695Z,19.32
2018-05-06T21:25:22.135Z,19.21
2018-05-06T21:27:49.553Z,19.14
2018-05-06T21:30:16.972Z,19.04
2018-05-06T21:32:44.385Z,18.94
2018-05-06T21:35:11.799Z,18.84
2018-05-06T21:37:39.296Z,18.74
2018-05-06T21:40:06.663Z,18.67
2018-05-06T21:42:34.076Z,18.62
2018-05-06T21:45:01.519Z,18.59
2018-05-06T21:47:28.891Z,18.56
2018-05-06T21:49:56.328Z,18.51
2018-05-06T21:52:23.719Z,18.47
2018-05-06T21:54:51.133Z,18.39
2018-05-06T21:57:18.547Z,18.32
2018-05-06T21:59:45.943Z,18.24
2018-05-06T22:02:13.376Z,18.15
2018-05-06T22:04:40.791Z,18.10
2018-05-06T22:07:08.200Z,18.07
2018-05-06T22:09:35.615Z,18.02
2018-05-06T22:12:03.015Z,17.98
2018-05-06T22:14:30.432Z,17.93
2018-05-06T22:16:57.843Z,17.84
2018-05-06T22:19:25.288Z,17.79
2018-05-06T22:21:52.673Z,17.73
2018-05-06T22:24:20.089Z,17.67
2018-05-06T22:26:47.495Z,17.61
2018-05-06T22:29:14.915Z,17.54
2018-05-06T22:31:42.322Z,17.50
2018-05-06T22:34:09.762Z,17.44
2018-05-06T22:36:37.136Z,17.40
2018-05-06T22:39:04.556Z,17.36
2018-05-06T22:41:32.027Z,17.30
2018-05-06T22:43:59.425Z,17.26
2018-05-06T22:46:26.826Z,17.20
2018-05-06T22:48:54.236Z,17.15
2018-05-06T22:51:21.660Z,17.11
2018-05-06T22:53:49.064Z,17.05
2018-05-06T22:56:16.477Z,16.98
2018-05-06T22:58:43.901Z,16.91
2018-05-06T23:01:11.296Z,16.87
2018-05-06T23:03:38.716Z,16.84
2018-05-06T23:06:06.120Z,16.77
2018-05-06T23:08:33.544Z,16.70
2018-05-06T23:11:00.947Z,16.62
2018-05-06T23:13:28.358Z,16.55
2018-05-06T23:15:55.777Z,16.48
2018-05-06T23:18:23.187Z,16.43
2018-05-06T23:20:50.626Z,16.37
2018-05-06T23:23:18.004Z,16.33
2018-05-06T23:25:45.428Z,16.26
2018-05-06T23:28:12.836Z,16.19
2018-05-06T23:30:40.267Z,16.15
2018-05-06T23:33:07.675Z,16.09
2018-05-06T23:35:35.127Z,16.06
2018-05-06T23:38:02.504Z,16.03
2018-05-06T23:40:29.912Z,16.02
2018-05-06T23:42:57.321Z,16.01
2018-05-06T23:45:24.739Z,15.98
2018-05-06T23:47:52.148Z,15.92
2018-05-06T23:50:19.564Z,15.88
2018-05-06T23:52:46.964Z,15.84
2018-05-06T23:55:14.438Z,15.80
2018-05-06T23:57:41.817Z,15.76
